Terminal Aerodrome Forecast
Issued by NWS Flagstaff, AZ

Home | Current Version | Previous Version | Text Only | Print | Product List | Glossary On
Versions: 1 2 3 4 5 6 7 8 9 10 11 12 13
991
FTUS45 KFGZ 250544
TAFINW
TAF
KINW 250544Z 2506/2606 23015KT P6SM BKN130
     FM251900 27030G40KT P6SM BKN130
     FM260300 32012KT P6SM SCT050=

USA.gov is the U.S. government's official web portal to all federal, state and local government web resources and services.